Time;durP1;ratioP1;P1;durP2;ratioP2;P2;SDS_P1;SDS_P2;PMS_P1;PMS_P2;Temp;Humidity;BMP_temperature;BMP_pressure;BME280_temperature;BME280_humidity;BME280_pressure;Samples;Min_cycle;Max_cycle;Signal;HPM_P1;HPM_P2
2021/12/31 00:00:30;;;;;;;102.88;46.75;;;5.20;99.90;;;;;;5034657;28;20182;-68
2021/12/31 00:02:56;;;;;;;99.15;38.97;;;5.20;99.90;;;;;;5034624;28;20198;-72
2021/12/31 00:05:24;;;;;;;98.18;38.70;;;5.20;99.90;;;;;;5034279;28;20186;-70
2021/12/31 00:07:58;;;;;;;90.72;42.25;;;5.20;99.90;;;;;;5037650;28;20233;-68
2021/12/31 00:10:26;;;;;;;96.60;41.78;;;5.20;99.90;;;;;;5057831;28;20196;-70
2021/12/31 00:12:56;;;;;;;98.15;45.97;;;5.30;99.90;;;;;;5057537;28;20590;-70
2021/12/31 00:15:24;;;;;;;113.57;43.90;;;5.30;99.90;;;;;;5057770;28;20169;-70
2021/12/31 00:17:51;;;;;;;115.05;50.40;;;5.30;99.90;;;;;;5075498;28;20197;-71
2021/12/31 00:20:23;;;;;;;113.80;44.45;;;5.30;99.90;;;;;;5057812;28;20260;-70
2021/12/31 00:23:03;;;;;;;109.95;47.10;;;5.40;99.90;;;;;;5057453;28;20205;-70
2021/12/31 00:25:31;;;;;;;103.45;41.70;;;5.40;99.90;;;;;;5057375;28;20551;-68
2021/12/31 00:27:58;;;;;;;116.10;46.92;;;5.40;99.90;;;;;;5057466;28;20205;-68
2021/12/31 00:30:27;;;;;;;103.20;46.10;;;5.40;99.90;;;;;;5057673;28;20200;-70
2021/12/31 00:33:01;;;;;;;102.40;44.83;;;5.40;99.90;;;;;;5057587;28;20662;-69
2021/12/31 00:35:34;;;;;;;92.55;44.05;;;5.40;99.90;;;;;;5057546;28;20184;-69
2021/12/31 00:38:08;;;;;;;106.03;46.67;;;5.50;99.90;;;;;;5057185;28;20240;-69
2021/12/31 00:40:35;;;;;;;95.47;43.45;;;5.50;99.90;;;;;;5057222;28;20172;-70
2021/12/31 00:43:02;;;;;;;115.05;50.05;;;5.50;99.90;;;;;;5056866;28;20274;-71
2021/12/31 00:48:11;;;;;;;105.47;44.50;;;5.50;99.90;;;;;;5074913;28;20257;-70
2021/12/31 00:50:38;;;;;;;106.05;45.20;;;5.60;99.90;;;;;;5056955;28;20181;-71
2021/12/31 00:53:05;;;;;;;115.53;49.60;;;5.50;99.90;;;;;;5056853;28;20208;-69
2021/12/31 00:55:32;;;;;;;114.90;47.75;;;5.50;99.90;;;;;;5056714;28;20310;-69
2021/12/31 00:57:59;;;;;;;112.57;49.90;;;5.60;99.90;;;;;;5056900;28;20209;-69
2021/12/31 01:00:27;;;;;;;98.88;47.55;;;5.60;99.90;;;;;;5056824;28;20184;-69
2021/12/31 01:02:55;;;;;;;103.82;47.78;;;5.60;99.90;;;;;;5074582;28;20588;-70
2021/12/31 01:05:25;;;;;;;106.63;48.13;;;5.60;99.90;;;;;;5056760;28;20177;-69
2021/12/31 01:07:53;;;;;;;127.18;53.95;;;5.60;99.90;;;;;;5056120;28;20203;-69
2021/12/31 01:10:23;;;;;;;117.75;50.83;;;5.60;99.90;;;;;;5056795;28;20176;-69
2021/12/31 01:12:51;;;;;;;118.47;49.88;;;5.70;99.90;;;;;;5056336;28;20205;-70
2021/12/31 01:15:21;;;;;;;122.50;53.47;;;5.70;99.90;;;;;;5056420;28;20184;-71
2021/12/31 01:20:18;;;;;;;109.32;47.53;;;5.70;99.90;;;;;;5074356;28;20176;-69
2021/12/31 01:22:46;;;;;;;111.80;52.45;;;5.70;99.90;;;;;;5056454;28;20283;-69
2021/12/31 01:25:19;;;;;;;105.32;51.05;;;5.70;99.90;;;;;;5056258;28;20173;-70
2021/12/31 01:27:49;;;;;;;103.65;48.25;;;5.70;99.90;;;;;;5056413;28;20209;-70
2021/12/31 01:30:27;;;;;;;103.72;46.38;;;5.70;99.90;;;;;;5056399;28;20189;-70
2021/12/31 01:33:04;;;;;;;117.80;51.55;;;5.70;99.90;;;;;;5055989;28;20209;-70
2021/12/31 01:35:35;;;;;;;102.00;45.40;;;5.70;99.90;;;;;;5056246;28;20642;-71
2021/12/31 01:38:04;;;;;;;107.70;48.22;;;5.70;99.90;;;;;;5055913;28;20212;-70
2021/12/31 01:40:40;;;;;;;104.32;47.72;;;5.80;99.90;;;;;;5055830;28;20180;-69
2021/12/31 01:43:13;;;;;;;106.43;47.45;;;5.80;99.90;;;;;;5056135;28;20201;-71
2021/12/31 01:46:13;;;;;;;106.82;49.97;;;5.80;99.90;;;;;;5055707;28;20196;-69
2021/12/31 01:48:49;;;;;;;110.40;51.00;;;5.80;99.90;;;;;;5069802;28;20563;-70
2021/12/31 01:51:18;;;;;;;111.03;53.83;;;5.90;99.90;;;;;;5055963;28;20519;-70
2021/12/31 01:53:48;;;;;;;113.90;51.63;;;5.90;99.90;;;;;;5055959;28;20244;-69
2021/12/31 01:56:16;;;;;;;109.88;49.03;;;5.90;99.90;;;;;;5055827;28;20180;-70
2021/12/31 01:58:43;;;;;;;108.63;51.25;;;5.90;99.90;;;;;;5055574;28;20682;-70
2021/12/31 02:01:11;;;;;;;105.30;51.30;;;5.90;99.90;;;;;;5055889;28;20581;-71
2021/12/31 02:03:38;;;;;;;103.97;49.72;;;5.90;99.90;;;;;;5055660;28;20240;-68
2021/12/31 02:06:07;;;;;;;107.25;49.80;;;5.90;99.90;;;;;;5054544;28;20177;-71
2021/12/31 02:08:37;;;;;;;100.90;48.92;;;5.90;99.90;;;;;;5055468;28;20320;-70
2021/12/31 02:11:12;;;;;;;120.45;53.45;;;6.00;99.90;;;;;;5055551;28;20181;-71
2021/12/31 02:13:43;;;;;;;102.72;50.53;;;6.00;99.90;;;;;;5073951;28;20254;-70
2021/12/31 02:16:11;;;;;;;106.28;48.47;;;6.10;99.90;;;;;;5054398;28;20177;-69
2021/12/31 02:18:36;;;;;;;102.53;51.38;;;6.10;99.90;;;;;;5055568;28;20244;-71
2021/12/31 02:21:07;;;;;;;91.90;45.13;;;6.10;99.90;;;;;;5055543;28;20180;-70
2021/12/31 02:23:46;;;;;;;106.00;51.58;;;6.10;99.90;;;;;;5073906;28;20761;-70
2021/12/31 02:26:15;;;;;;;87.72;43.95;;;6.10;99.90;;;;;;5055096;28;20181;-70
2021/12/31 02:28:42;;;;;;;96.97;47.30;;;6.10;99.90;;;;;;5055434;28;20252;-70
2021/12/31 02:31:09;;;;;;;104.47;49.23;;;6.20;99.90;;;;;;5055473;28;20201;-70
2021/12/31 02:33:41;;;;;;;101.70;50.72;;;6.20;99.90;;;;;;5055475;28;20428;-70
2021/12/31 02:36:12;;;;;;;93.55;49.72;;;6.20;99.90;;;;;;5055378;28;20627;-70
2021/12/31 02:38:44;;;;;;;104.05;51.20;;;6.30;99.90;;;;;;5055312;28;20280;-69
2021/12/31 02:41:11;;;;;;;102.75;44.65;;;6.30;99.90;;;;;;5055435;28;20527;-71
2021/12/31 02:43:43;;;;;;;107.55;53.00;;;6.30;99.90;;;;;;5055165;28;20279;-71
2021/12/31 02:46:09;;;;;;;104.57;52.38;;;6.30;99.90;;;;;;5055335;28;20546;-71
2021/12/31 02:48:38;;;;;;;102.75;51.30;;;6.30;99.90;;;;;;5055095;28;20571;-71
2021/12/31 02:51:06;;;;;;;90.93;47.08;;;6.30;99.90;;;;;;5056680;28;20227;-70
2021/12/31 02:53:38;;;;;;;109.28;51.80;;;6.30;99.90;;;;;;5059410;28;20204;-71
2021/12/31 02:56:12;;;;;;;110.85;51.97;;;6.30;99.90;;;;;;5077182;28;20168;-70
2021/12/31 02:58:39;;;;;;;101.35;48.75;;;6.30;99.90;;;;;;5058949;28;20580;-69
2021/12/31 03:01:09;;;;;;;100.60;49.40;;;6.30;99.90;;;;;;5059100;28;20177;-69
2021/12/31 03:03:36;;;;;;;111.25;55.22;;;6.30;99.90;;;;;;5059067;28;20598;-69
2021/12/31 03:06:08;;;;;;;110.40;54.45;;;6.40;99.90;;;;;;5058962;28;20177;-69
2021/12/31 03:08:45;;;;;;;99.05;50.15;;;6.40;99.90;;;;;;5047608;28;20332;-71
2021/12/31 03:11:15;;;;;;;99.25;50.88;;;6.40;99.90;;;;;;5035719;28;20649;-69
2021/12/31 03:13:44;;;;;;;104.28;50.85;;;6.40;99.90;;;;;;5035428;28;20217;-69
2021/12/31 03:16:10;;;;;;;113.63;52.08;;;6.40;99.90;;;;;;5035357;28;20175;-69
2021/12/31 03:18:38;;;;;;;92.78;48.63;;;6.40;99.90;;;;;;5035337;28;20576;-71
2021/12/31 03:21:21;;;;;;;97.32;50.28;;;6.40;99.90;;;;;;5035368;28;20243;-69
2021/12/31 03:24:01;;;;;;;108.60;57.20;;;6.50;99.90;;;;;;5035242;28;20221;-71
2021/12/31 03:26:40;;;;;;;109.07;56.63;;;6.50;99.90;;;;;;5035211;28;20182;-70
2021/12/31 03:29:07;;;;;;;104.63;54.38;;;6.50;99.90;;;;;;5035365;28;20576;-71
2021/12/31 03:31:33;;;;;;;94.85;51.80;;;6.50;99.90;;;;;;5035236;28;20185;-70
2021/12/31 03:34:04;;;;;;;89.50;50.25;;;6.50;99.90;;;;;;5036471;28;20271;-69
2021/12/31 03:36:33;;;;;;;96.38;49.13;;;6.60;99.90;;;;;;5035217;28;20690;-71
2021/12/31 03:39:08;;;;;;;85.35;47.45;;;6.60;99.90;;;;;;5035289;28;20305;-70
2021/12/31 03:41:44;;;;;;;83.93;49.67;;;6.60;99.90;;;;;;5034731;28;20221;-71
2021/12/31 03:44:18;;;;;;;85.20;47.78;;;6.70;99.90;;;;;;5034933;28;20210;-70
2021/12/31 03:46:45;;;;;;;86.13;47.53;;;6.70;99.90;;;;;;5035078;28;20584;-69
2021/12/31 03:49:14;;;;;;;83.03;44.97;;;6.70;99.90;;;;;;5034888;28;20707;-71
2021/12/31 03:51:43;;;;;;;87.05;43.45;;;6.70;99.90;;;;;;5036104;28;20196;-69
2021/12/31 03:54:11;;;;;;;80.78;45.40;;;6.80;99.90;;;;;;5035004;28;20695;-70
2021/12/31 03:56:39;;;;;;;77.10;44.50;;;6.80;99.90;;;;;;5034689;28;20182;-70
2021/12/31 03:59:07;;;;;;;82.45;43.95;;;6.80;99.90;;;;;;5034911;28;20645;-69
2021/12/31 04:01:34;;;;;;;79.55;41.58;;;6.80;99.90;;;;;;5034362;28;20178;-69
2021/12/31 04:04:03;;;;;;;81.47;44.15;;;6.80;99.90;;;;;;5034634;28;20218;-70
2021/12/31 04:06:32;;;;;;;73.60;42.10;;;6.80;99.90;;;;;;5034503;28;20228;-69
2021/12/31 04:09:01;;;;;;;74.65;44.05;;;6.80;99.90;;;;;;5034207;28;20241;-71
2021/12/31 04:11:39;;;;;;;74.13;42.50;;;6.80;99.90;;;;;;5034703;28;20177;-71
2021/12/31 04:14:07;;;;;;;77.18;43.92;;;6.90;99.90;;;;;;5034702;28;20202;-71
2021/12/31 04:16:37;;;;;;;72.95;42.75;;;6.90;99.90;;;;;;5034596;28;20170;-68
2021/12/31 04:19:10;;;;;;;76.25;41.05;;;6.90;99.90;;;;;;5034327;28;20301;-71
2021/12/31 04:21:37;;;;;;;78.10;42.83;;;6.90;99.90;;;;;;5034625;28;20221;-69
2021/12/31 04:24:14;;;;;;;64.47;39.83;;;6.90;99.90;;;;;;5033931;28;20601;-71
2021/12/31 04:26:41;;;;;;;76.90;42.17;;;6.90;99.90;;;;;;5034197;28;20174;-69
2021/12/31 04:29:08;;;;;;;79.10;44.10;;;7.00;99.90;;;;;;5034208;28;20225;-71
2021/12/31 04:31:37;;;;;;;73.10;40.08;;;7.00;99.90;;;;;;5034120;28;20182;-71
2021/12/31 04:34:06;;;;;;;66.35;41.55;;;7.00;99.90;;;;;;5033929;28;20238;-69
2021/12/31 04:36:32;;;;;;;76.30;41.60;;;7.00;99.90;;;;;;5033978;28;20668;-71
2021/12/31 04:39:02;;;;;;;68.32;39.60;;;7.00;99.90;;;;;;5033896;28;20237;-69
2021/12/31 04:41:31;;;;;;;67.20;39.70;;;7.00;99.90;;;;;;5033938;28;20182;-69
2021/12/31 04:43:58;;;;;;;75.63;42.88;;;7.00;99.90;;;;;;5033916;28;20637;-69
2021/12/31 04:46:28;;;;;;;72.18;41.90;;;7.10;99.90;;;;;;5033586;28;20225;-69
2021/12/31 04:48:57;;;;;;;68.00;39.90;;;7.10;99.90;;;;;;5033494;28;20321;-69
2021/12/31 04:51:26;;;;;;;66.32;37.15;;;7.10;99.90;;;;;;5033284;28;20216;-69
2021/12/31 04:53:59;;;;;;;61.50;37.75;;;7.10;99.90;;;;;;5033743;28;20206;-70
2021/12/31 04:56:29;;;;;;;63.05;38.20;;;7.10;99.90;;;;;;5033957;28;20166;-71
2021/12/31 04:58:57;;;;;;;62.67;38.28;;;7.20;99.90;;;;;;5033769;28;20210;-69
2021/12/31 05:01:24;;;;;;;67.55;40.40;;;7.20;99.90;;;;;;5033827;28;20178;-69
2021/12/31 05:03:54;;;;;;;63.25;38.90;;;7.10;99.90;;;;;;5033269;28;20586;-69
2021/12/31 05:06:25;;;;;;;69.90;40.70;;;7.20;99.90;;;;;;5033242;28;20182;-71
2021/12/31 05:08:52;;;;;;;67.32;42.20;;;7.10;99.90;;;;;;5032932;28;20345;-69
2021/12/31 05:11:19;;;;;;;69.43;40.90;;;7.20;99.90;;;;;;5033350;28;20654;-71
2021/12/31 05:13:49;;;;;;;69.40;40.53;;;7.20;99.90;;;;;;5032784;28;20606;-70
2021/12/31 05:16:16;;;;;;;71.70;42.85;;;7.20;99.90;;;;;;5033410;28;20277;-71
2021/12/31 05:18:43;;;;;;;61.50;39.30;;;7.10;99.90;;;;;;5033156;28;20749;-69
2021/12/31 05:21:10;;;;;;;64.03;39.72;;;7.10;99.90;;;;;;5033064;28;20174;-69
2021/12/31 05:23:39;;;;;;;64.55;39.83;;;7.10;99.90;;;;;;5034321;28;20266;-71
2021/12/31 05:26:06;;;;;;;69.13;39.65;;;7.10;99.90;;;;;;5033046;28;20608;-71
2021/12/31 05:28:34;;;;;;;65.38;39.47;;;7.10;99.90;;;;;;5032819;28;20241;-69
2021/12/31 05:31:09;;;;;;;65.70;39.20;;;7.10;99.90;;;;;;5033238;28;20174;-69
2021/12/31 05:33:45;;;;;;;64.95;38.30;;;7.10;99.90;;;;;;5032846;28;20613;-69
2021/12/31 05:36:14;;;;;;;67.90;42.05;;;7.10;99.90;;;;;;5032880;28;20189;-69
2021/12/31 05:38:40;;;;;;;64.97;41.33;;;7.20;99.90;;;;;;5034425;28;20194;-70
2021/12/31 05:41:10;;;;;;;64.40;42.10;;;7.20;99.90;;;;;;5032841;28;20180;-70
2021/12/31 05:43:37;;;;;;;65.00;40.28;;;7.20;99.90;;;;;;5032734;28;20463;-69
2021/12/31 05:46:03;;;;;;;67.10;40.20;;;7.20;99.90;;;;;;5032682;28;20217;-70
2021/12/31 05:48:29;;;;;;;63.72;39.53;;;7.20;99.90;;;;;;5032394;28;20218;-70
2021/12/31 05:50:57;;;;;;;64.30;39.72;;;7.20;99.90;;;;;;5032796;28;20182;-71
2021/12/31 05:53:30;;;;;;;58.53;38.58;;;7.20;99.90;;;;;;5032589;28;20205;-69
2021/12/31 05:55:58;;;;;;;69.35;39.20;;;7.30;99.90;;;;;;5032787;28;20179;-70
2021/12/31 05:58:29;;;;;;;60.08;37.92;;;7.30;99.90;;;;;;5032316;28;20205;-71
2021/12/31 06:00:57;;;;;;;56.40;38.03;;;7.30;99.90;;;;;;5032712;28;20179;-69
2021/12/31 06:03:27;;;;;;;66.20;38.25;;;7.30;99.90;;;;;;5032710;28;20203;-71
2021/12/31 06:05:55;;;;;;;62.80;39.25;;;7.30;99.90;;;;;;5032606;28;20204;-69
2021/12/31 06:08:25;;;;;;;63.58;38.22;;;7.40;99.90;;;;;;5032191;28;20629;-69
2021/12/31 06:10:55;;;;;;;65.43;38.78;;;7.40;99.90;;;;;;5032493;28;20177;-70
2021/12/31 06:13:22;;;;;;;54.58;36.80;;;7.40;99.90;;;;;;5032685;28;20666;-69
2021/12/31 06:15:56;;;;;;;60.40;37.42;;;7.40;99.90;;;;;;5032380;28;20174;-71
2021/12/31 06:18:24;;;;;;;63.42;40.22;;;7.40;99.90;;;;;;5032372;28;20210;-71
2021/12/31 06:20:54;;;;;;;63.85;40.72;;;7.40;99.90;;;;;;5032270;28;20709;-69
2021/12/31 06:23:27;;;;;;;58.03;39.03;;;7.40;99.90;;;;;;5032685;28;20206;-70
2021/12/31 06:25:56;;;;;;;55.42;38.08;;;7.40;99.90;;;;;;5035309;28;20257;-71
2021/12/31 06:28:31;;;;;;;57.22;37.28;;;7.40;99.90;;;;;;5036504;28;20694;-69
2021/12/31 06:30:59;;;;;;;59.10;37.92;;;7.50;99.90;;;;;;5036526;28;20174;-71
2021/12/31 06:33:28;;;;;;;58.22;37.15;;;7.50;99.90;;;;;;5036247;28;20206;-71
2021/12/31 06:35:58;;;;;;;56.42;39.35;;;7.50;99.90;;;;;;5036214;28;20182;-69
2021/12/31 06:38:31;;;;;;;60.08;39.65;;;7.50;99.90;;;;;;5036054;28;20217;-69
2021/12/31 06:40:58;;;;;;;62.70;42.67;;;7.50;99.90;;;;;;5036366;28;20178;-71
2021/12/31 06:43:25;;;;;;;74.43;49.55;;;7.50;99.90;;;;;;5035845;28;20312;-70
2021/12/31 06:45:53;;;;;;;127.97;88.45;;;7.50;99.90;;;;;;5036014;28;20179;-70
2021/12/31 06:48:22;;;;;;;143.02;103.43;;;7.50;99.90;;;;;;5035500;28;20210;-69
2021/12/31 06:50:48;;;;;;;154.90;105.05;;;7.50;99.90;;;;;;5036033;28;20179;-69
2021/12/31 06:53:18;;;;;;;213.75;147.25;;;7.50;99.90;;;;;;5035882;28;20578;-71
2021/12/31 06:55:48;;;;;;;111.07;83.75;;;7.50;99.90;;;;;;5035629;28;20192;-71
2021/12/31 06:58:21;;;;;;;81.78;59.55;;;7.50;99.90;;;;;;5035750;28;20233;-69
2021/12/31 07:00:49;;;;;;;57.83;40.83;;;7.50;99.90;;;;;;5035774;28;20193;-70
2021/12/31 07:03:15;;;;;;;52.40;37.33;;;7.50;99.90;;;;;;5036156;28;20229;-71
2021/12/31 07:05:44;;;;;;;53.72;36.25;;;7.60;99.90;;;;;;5035590;28;20182;-71
2021/12/31 07:08:15;;;;;;;52.33;33.63;;;7.60;99.90;;;;;;5035344;28;20291;-68
2021/12/31 07:10:41;;;;;;;47.58;34.03;;;7.60;99.90;;;;;;5036014;28;20185;-69
2021/12/31 07:13:11;;;;;;;51.38;36.80;;;7.60;99.90;;;;;;5035420;28;20206;-71
2021/12/31 07:15:48;;;;;;;57.97;43.55;;;7.70;99.90;;;;;;5035409;28;20710;-71
2021/12/31 07:18:15;;;;;;;155.38;93.30;;;7.70;99.90;;;;;;5035763;28;20213;-70
2021/12/31 07:20:42;;;;;;;170.93;101.28;;;7.70;99.90;;;;;;5035457;28;20266;-70
2021/12/31 07:23:14;;;;;;;61.80;48.25;;;7.80;99.90;;;;;;5035390;28;20297;-70
2021/12/31 07:25:48;;;;;;;85.55;64.22;;;7.80;99.90;;;;;;5036717;28;20185;-69
2021/12/31 07:28:18;;;;;;;59.17;40.50;;;7.80;99.90;;;;;;5035461;28;20315;-69
2021/12/31 07:30:46;;;;;;;69.95;46.63;;;7.90;99.90;;;;;;5034365;28;20224;-69
2021/12/31 07:33:20;;;;;;;68.05;42.28;;;7.90;99.90;;;;;;5033347;28;20206;-69
2021/12/31 07:35:48;;;;;;;48.13;34.75;;;7.90;99.90;;;;;;5033012;28;20182;-71
2021/12/31 07:38:35;;;;;;;46.63;33.15;;;8.00;99.90;;;;;;5026241;28;20406;-69
2021/12/31 07:41:02;;;;;;;46.25;28.85;;;8.00;99.90;;;;;;5013275;28;20593;-71
2021/12/31 07:43:29;;;;;;;42.38;29.42;;;8.10;99.90;;;;;;5021058;28;20194;-68
2021/12/31 07:45:59;;;;;;;41.78;28.05;;;8.20;99.90;;;;;;5033478;28;20167;-71
2021/12/31 07:48:28;;;;;;;42.60;31.58;;;8.30;99.90;;;;;;5033320;28;20218;-72
2021/12/31 07:50:58;;;;;;;42.63;30.92;;;8.40;99.90;;;;;;5034913;28;20190;-69
2021/12/31 07:53:25;;;;;;;43.15;27.70;;;8.40;99.90;;;;;;5034824;28;20218;-71
2021/12/31 07:55:51;;;;;;;38.13;26.02;;;8.50;99.90;;;;;;5034766;28;20178;-71
2021/12/31 07:58:23;;;;;;;37.03;27.10;;;8.60;99.90;;;;;;5034876;28;20210;-69
2021/12/31 08:00:51;;;;;;;42.13;28.15;;;8.70;99.90;;;;;;5035065;28;20244;-69
2021/12/31 08:03:17;;;;;;;39.47;29.77;;;8.80;99.90;;;;;;5034464;28;20222;-69
2021/12/31 08:05:46;;;;;;;44.17;33.42;;;8.90;99.90;;;;;;5034543;28;20398;-69
2021/12/31 08:08:13;;;;;;;35.17;26.55;;;9.00;99.90;;;;;;5034036;28;20226;-71
2021/12/31 08:10:41;;;;;;;36.45;27.52;;;9.00;99.90;;;;;;5034498;28;20217;-71
2021/12/31 08:13:07;;;;;;;42.50;33.90;;;9.10;99.90;;;;;;5032877;28;20679;-70
2021/12/31 08:15:40;;;;;;;40.63;31.45;;;9.10;99.90;;;;;;5034401;28;20179;-70
2021/12/31 08:18:06;;;;;;;41.33;28.92;;;9.10;99.90;;;;;;5034314;28;20202;-71
2021/12/31 08:20:37;;;;;;;38.28;26.33;;;9.20;99.90;;;;;;5034289;28;20584;-69
2021/12/31 08:23:09;;;;;;;59.00;40.70;;;9.20;99.90;;;;;;5034271;28;20198;-69
2021/12/31 08:25:37;;;;;;;33.30;24.90;;;9.20;99.90;;;;;;5034292;28;20179;-71
2021/12/31 08:28:04;;;;;;;29.23;22.33;;;9.30;99.90;;;;;;5034135;28;20214;-69
2021/12/31 08:30:34;;;;;;;27.15;20.10;;;9.50;99.90;;;;;;5033903;28;20252;-71
2021/12/31 08:33:01;;;;;;;27.65;19.65;;;9.80;99.90;;;;;;5033927;28;20202;-69
2021/12/31 08:35:33;;;;;;;23.85;18.17;;;10.10;99.90;;;;;;5033828;28;20648;-70
2021/12/31 08:38:05;;;;;;;21.30;17.40;;;10.50;99.90;;;;;;5022752;28;20215;-71
2021/12/31 08:40:36;;;;;;;19.77;16.30;;;10.90;99.90;;;;;;5016525;28;20187;-69
2021/12/31 08:43:07;;;;;;;20.65;16.15;;;11.30;99.90;;;;;;5022458;28;20198;-71
2021/12/31 08:45:34;;;;;;;21.33;16.27;;;11.60;99.90;;;;;;5033635;28;20181;-71
2021/12/31 08:48:02;;;;;;;20.23;15.48;;;12.10;99.90;;;;;;5017498;28;20730;-71
2021/12/31 08:50:38;;;;;;;18.73;14.80;;;12.50;99.90;;;;;;5013704;28;20198;-70
2021/12/31 08:53:05;;;;;;;20.97;16.47;;;13.00;99.90;;;;;;5014131;28;20448;-70
2021/12/31 08:55:31;;;;;;;17.57;13.77;;;13.60;99.90;;;;;;5013915;28;20453;-70
2021/12/31 08:57:58;;;;;;;18.50;13.10;;;14.20;99.90;;;;;;5014125;28;20457;-71
2021/12/31 09:00:25;;;;;;;17.03;13.40;;;15.00;99.90;;;;;;5032901;28;20906;-70
2021/12/31 09:02:53;;;;;;;17.07;13.80;;;15.90;99.90;;;;;;5033541;28;20542;-71
2021/12/31 09:05:24;;;;;;;16.30;12.43;;;16.60;99.90;;;;;;5033867;28;20515;-71
2021/12/31 09:07:51;;;;;;;17.07;13.93;;;17.10;99.90;;;;;;5035849;28;20473;-69
2021/12/31 09:10:18;;;;;;;15.43;12.70;;;17.50;99.90;;;;;;5056609;28;20486;-72
2021/12/31 09:12:51;;;;;;;16.03;13.20;;;17.80;99.90;;;;;;5056302;28;20454;-70
2021/12/31 09:15:20;;;;;;;13.43;11.57;;;18.00;99.90;;;;;;5056713;28;20449;-70
2021/12/31 09:17:48;;;;;;;12.53;11.23;;;18.30;99.90;;;;;;5056284;28;20461;-71
2021/12/31 09:20:17;;;;;;;14.27;12.77;;;18.50;99.90;;;;;;5056266;28;20436;-71
2021/12/31 09:22:45;;;;;;;16.13;13.83;;;18.60;99.90;;;;;;5056145;28;20473;-71
2021/12/31 09:25:15;;;;;;;15.47;12.53;;;18.80;99.90;;;;;;5056390;28;20485;-69
2021/12/31 09:27:44;;;;;;;13.17;11.30;;;19.10;99.90;;;;;;5056110;28;20521;-71
2021/12/31 09:30:11;;;;;;;13.63;11.20;;;19.40;99.90;;;;;;5055091;28;20548;-71
2021/12/31 09:32:40;;;;;;;11.93;10.73;;;19.60;99.90;;;;;;5053988;28;20450;-71
2021/12/31 09:35:19;;;;;;;12.70;10.60;;;19.90;99.90;;;;;;5052056;28;20453;-69
2021/12/31 09:37:47;;;;;;;10.60;9.30;;;20.00;99.90;;;;;;5050707;28;20460;-71
2021/12/31 09:40:23;;;;;;;10.93;9.00;;;20.10;99.90;;;;;;5053749;28;20924;-71
2021/12/31 09:43:25;;;;;;;9.93;8.93;;;20.20;99.90;;;;;;5055329;28;20456;-70
2021/12/31 09:45:52;;;;;;;10.57;8.40;;;20.20;99.90;;;;;;5024505;28;20519;-71
2021/12/31 09:48:31;;;;;;;9.57;8.60;;;20.10;99.90;;;;;;5055857;28;20453;-69
2021/12/31 09:51:06;;;;;;;10.20;9.20;;;20.00;99.90;;;;;;5055836;28;20825;-71
2021/12/31 09:53:36;;;;;;;10.70;8.60;;;20.00;99.90;;;;;;5056088;28;20475;-70
2021/12/31 09:56:13;;;;;;;9.10;8.20;;;20.10;99.90;;;;;;5056038;28;20856;-69
2021/12/31 09:58:42;;;;;;;9.57;7.87;;;20.20;99.90;;;;;;5055812;28;20440;-69
2021/12/31 10:01:12;;;;;;;9.37;8.17;;;20.30;99.90;;;;;;5055759;28;20504;-71
2021/12/31 10:03:39;;;;;;;8.73;7.93;;;20.30;99.90;;;;;;5074053;28;20459;-69
2021/12/31 10:06:09;;;;;;;8.73;7.60;;;20.20;99.90;;;;;;5055340;28;20420;-69
2021/12/31 10:08:44;;;;;;;7.10;6.40;;;20.10;99.90;;;;;;5053349;28;20555;-71
2021/12/31 10:11:47;;;;;;;8.30;7.20;;;20.00;99.90;;;;;;5071117;28;20442;-71
2021/12/31 10:14:32;;;;;;;8.93;8.00;;;19.80;99.90;;;;;;5052774;28;20460;-69
2021/12/31 10:17:04;;;;;;;7.83;7.03;;;19.70;99.90;;;;;;5053205;28;20694;-71
2021/12/31 10:19:37;;;;;;;8.50;7.07;;;19.50;99.90;;;;;;5054144;28;20541;-71
2021/12/31 10:22:04;;;;;;;8.47;7.57;;;19.40;99.90;;;;;;5052842;28;20938;-71
2021/12/31 10:24:34;;;;;;;7.07;6.37;;;19.30;99.90;;;;;;5050558;28;20429;-71
2021/12/31 10:27:12;;;;;;;7.67;6.80;;;19.20;99.90;;;;;;5049784;28;20421;-71
2021/12/31 10:29:56;;;;;;;8.40;7.60;;;19.00;99.90;;;;;;5050083;28;20478;-71
2021/12/31 10:32:28;;;;;;;7.83;7.03;;;18.90;99.90;;;;;;5049914;28;20449;-69
2021/12/31 10:35:15;;;;;;;8.93;6.77;;;18.90;99.90;;;;;;5050344;28;20470;-71
2021/12/31 10:37:57;;;;;;;7.40;6.70;;;18.90;99.90;;;;;;5050883;28;20528;-69
2021/12/31 10:40:36;;;;;;;7.00;6.40;;;18.90;99.90;;;;;;5053459;28;20478;-71
2021/12/31 10:43:35;;;;;;;8.17;7.23;;;18.80;99.90;;;;;;5053929;28;20841;-69
2021/12/31 10:46:10;;;;;;;7.40;6.67;;;18.70;99.90;;;;;;5055284;28;20429;-69
2021/12/31 10:48:51;;;;;;;9.50;6.93;;;18.50;99.90;;;;;;5055201;28;20522;-69
2021/12/31 10:51:35;;;;;;;7.67;6.97;;;18.40;99.90;;;;;;5055436;28;20816;-69
2021/12/31 10:54:33;;;;;;;8.77;6.70;;;18.30;99.90;;;;;;5055274;28;20430;-71
2021/12/31 10:57:00;;;;;;;7.60;6.70;;;18.20;99.90;;;;;;5052398;28;20512;-69
2021/12/31 10:59:37;;;;;;;7.00;6.17;;;18.10;99.90;;;;;;5055546;28;20430;-69
2021/12/31 11:02:07;;;;;;;6.40;5.73;;;18.00;99.90;;;;;;5054153;28;20511;-69
2021/12/31 11:04:35;;;;;;;6.53;5.93;;;17.90;99.90;;;;;;5052464;28;20446;-71
2021/12/31 11:07:11;;;;;;;6.87;6.17;;;17.80;99.90;;;;;;5044047;28;20453;-71
2021/12/31 11:09:48;;;;;;;5.80;5.23;;;17.60;99.90;;;;;;5031291;28;20495;-69
2021/12/31 11:12:17;;;;;;;5.10;4.67;;;17.50;99.90;;;;;;5049946;28;20535;-69
2021/12/31 11:14:46;;;;;;;6.20;4.70;;;17.40;99.90;;;;;;5035665;28;20447;-68
2021/12/31 11:17:19;;;;;;;5.70;5.07;;;17.30;99.90;;;;;;5035323;28;20425;-71
2021/12/31 11:19:52;;;;;;;4.10;3.70;;;17.30;99.90;;;;;;5035569;28;20466;-71
2021/12/31 11:22:23;;;;;;;5.87;5.30;;;17.20;99.90;;;;;;5035524;28;20444;-71
2021/12/31 11:24:51;;;;;;;4.03;3.63;;;17.20;99.90;;;;;;5035485;28;20435;-69
2021/12/31 11:27:30;;;;;;;4.70;3.73;;;17.10;99.90;;;;;;5035266;28;20444;-69
2021/12/31 11:29:58;;;;;;;3.87;3.57;;;17.10;99.90;;;;;;5035216;28;20488;-71
2021/12/31 11:32:46;;;;;;;4.10;3.40;;;17.00;99.90;;;;;;5033455;28;20445;-69
2021/12/31 11:35:38;;;;;;;3.93;3.50;;;17.00;99.90;;;;;;5034623;28;20493;-71
2021/12/31 11:38:23;;;;;;;4.50;4.10;;;17.00;99.90;;;;;;5034729;28;20459;-71
2021/12/31 11:41:11;;;;;;;3.80;3.50;;;17.00;99.90;;;;;;5034306;28;20445;-69
2021/12/31 11:43:39;;;;;;;4.17;3.33;;;17.00;99.90;;;;;;5034865;28;20447;-69
2021/12/31 11:46:12;;;;;;;3.37;3.07;;;17.00;99.90;;;;;;5033543;28;20976;-69
2021/12/31 11:48:47;;;;;;;3.53;3.17;;;17.10;99.90;;;;;;5033035;28;20470;-71
2021/12/31 11:51:22;;;;;;;4.17;3.77;;;17.10;99.90;;;;;;5033161;28;20489;-69
2021/12/31 11:53:59;;;;;;;4.30;3.90;;;17.30;99.90;;;;;;5032921;28;20458;-69
2021/12/31 11:56:40;;;;;;;3.90;3.50;;;17.40;99.90;;;;;;5032885;28;20444;-71
2021/12/31 11:59:09;;;;;;;5.23;3.80;;;17.40;99.90;;;;;;5032621;28;20457;-68
2021/12/31 12:01:47;;;;;;;3.80;3.50;;;17.50;99.90;;;;;;5034689;28;20429;-71
2021/12/31 12:04:21;;;;;;;5.80;3.97;;;17.50;99.90;;;;;;5034921;28;20793;-69
2021/12/31 12:07:07;;;;;;;4.50;4.10;;;17.60;99.90;;;;;;5034742;28;21081;-71
2021/12/31 12:09:36;;;;;;;4.00;3.40;;;17.60;99.90;;;;;;5034131;28;20497;-71
2021/12/31 12:12:04;;;;;;;3.60;3.17;;;17.60;99.90;;;;;;5034257;28;20431;-69
2021/12/31 12:14:32;;;;;;;3.60;3.30;;;17.60;99.90;;;;;;5034436;28;20180;-71
2021/12/31 12:16:58;;;;;;;3.43;3.13;;;17.60;99.90;;;;;;5035702;28;20915;-71
2021/12/31 12:19:46;;;;;;;5.53;3.10;;;17.70;99.90;;;;;;5034609;28;20925;-69
2021/12/31 12:22:39;;;;;;;3.57;3.00;;;17.70;99.90;;;;;;5034064;28;20465;-71
2021/12/31 12:25:22;;;;;;;2.87;2.67;;;17.70;99.90;;;;;;5034405;28;20408;-69
2021/12/31 12:28:11;;;;;;;4.03;3.73;;;17.80;99.90;;;;;;5034528;28;20453;-69
2021/12/31 12:30:47;;;;;;;3.97;3.00;;;17.80;99.90;;;;;;5034465;28;20571;-69
2021/12/31 12:33:18;;;;;;;3.20;2.90;;;17.80;99.90;;;;;;5034384;28;20486;-69
2021/12/31 12:35:48;;;;;;;3.20;3.00;;;17.80;99.90;;;;;;5034149;28;20515;-69
2021/12/31 12:38:30;;;;;;;4.13;2.73;;;17.80;99.90;;;;;;5034095;28;20448;-69
2021/12/31 12:41:02;;;;;;;3.20;2.90;;;17.80;99.90;;;;;;5033974;28;20422;-69
2021/12/31 12:43:29;;;;;;;3.70;3.40;;;17.80;99.90;;;;;;5033968;28;20445;-72
2021/12/31 12:46:05;;;;;;;6.00;4.10;;;17.80;99.90;;;;;;5034192;28;20427;-71
2021/12/31 12:48:38;;;;;;;3.37;3.07;;;17.80;99.90;;;;;;5033794;28;20446;-71
2021/12/31 12:51:10;;;;;;;2.63;2.40;;;17.80;99.90;;;;;;5033675;28;20788;-69
2021/12/31 12:53:40;;;;;;;2.90;2.60;;;17.80;99.90;;;;;;5034058;28;20484;-71
2021/12/31 12:56:12;;;;;;;2.17;2.03;;;17.80;99.90;;;;;;5033753;28;20437;-71
2021/12/31 12:58:49;;;;;;;2.80;2.60;;;17.70;99.90;;;;;;5033490;28;20448;-69
2021/12/31 13:01:16;;;;;;;2.70;2.50;;;17.70;99.90;;;;;;5033547;28;20436;-71